createdAt,value
2023-05-09T00:02:31.048Z,74.50
2023-05-09T00:05:34.055Z,74.49
2023-05-09T00:08:38.107Z,74.63
2023-05-09T00:11:41.020Z,75.07
2023-05-09T00:14:45.633Z,74.71
2023-05-09T00:17:48.479Z,73.98
2023-05-09T00:20:51.372Z,74.82
2023-05-09T00:23:54.165Z,74.83
2023-05-09T00:26:57.017Z,74.61
2023-05-09T00:29:59.811Z,74.51
2023-05-09T00:33:02.735Z,75.22
2023-05-09T00:36:05.806Z,75.72
2023-05-09T00:39:08.703Z,76.17
2023-05-09T00:42:11.626Z,77.03
2023-05-09T00:45:14.558Z,77.46
2023-05-09T00:48:18.153Z,77.33
2023-05-09T00:51:21.785Z,77.65
2023-05-09T00:54:24.807Z,78.04
2023-05-09T00:57:27.689Z,78.53
2023-05-09T01:00:30.661Z,79.21
2023-05-09T01:03:33.536Z,79.37
2023-05-09T01:06:52.408Z,80.07
2023-05-09T01:10:17.863Z,79.16
2023-05-09T01:13:46.348Z,78.92
2023-05-09T01:16:59.069Z,78.60
2023-05-09T01:20:13.646Z,78.93
2023-05-09T01:23:48.658Z,79.04
2023-05-09T01:27:14.347Z,78.84
2023-05-09T01:30:18.548Z,79.23
2023-05-09T01:33:24.555Z,79.85
2023-05-09T01:36:33.106Z,80.19
2023-05-09T01:39:40.171Z,80.13
2023-05-09T01:42:47.935Z,79.79
2023-05-09T01:45:52.873Z,80.39
2023-05-09T01:48:57.481Z,80.67
2023-05-09T01:52:04.437Z,80.34
2023-05-09T01:55:09.635Z,80.58
2023-05-09T01:58:13.652Z,80.95
2023-05-09T02:01:17.813Z,80.96
2023-05-09T02:04:22.159Z,81.19
2023-05-09T02:07:25.738Z,81.16
2023-05-09T02:10:31.601Z,81.24
2023-05-09T02:13:34.434Z,81.34
2023-05-09T02:16:39.586Z,81.35
2023-05-09T02:19:43.472Z,81.56
2023-05-09T02:22:47.229Z,81.48
2023-05-09T02:25:51.115Z,82.17
2023-05-09T02:28:56.126Z,81.36
2023-05-09T02:32:01.387Z,80.81
2023-05-09T02:35:06.904Z,81.94
2023-05-09T02:38:10.451Z,81.56
2023-05-09T02:41:14.585Z,81.59
2023-05-09T02:44:17.432Z,82.21
2023-05-09T02:47:20.751Z,82.40
2023-05-09T02:50:23.725Z,82.08
2023-05-09T02:53:26.616Z,81.99
2023-05-09T02:56:29.440Z,82.31
2023-05-09T02:59:32.510Z,81.93
2023-05-09T03:02:38.874Z,82.33
2023-05-09T03:05:45.261Z,83.38
2023-05-09T03:08:48.059Z,82.55
2023-05-09T03:11:51.011Z,82.72
2023-05-09T03:14:53.873Z,82.73
2023-05-09T03:17:56.656Z,82.44
2023-05-09T03:20:59.557Z,82.39
2023-05-09T03:24:04.826Z,82.30
2023-05-09T03:27:07.676Z,82.36
2023-05-09T03:30:11.107Z,81.87
2023-05-09T03:33:13.842Z,81.38
2023-05-09T03:36:17.463Z,81.13
2023-05-09T03:39:20.449Z,81.39
2023-05-09T03:42:26.135Z,81.18
2023-05-09T03:45:32.759Z,81.24
2023-05-09T03:48:36.258Z,80.69
2023-05-09T03:51:41.896Z,80.47
2023-05-09T03:54:49.187Z,80.29
2023-05-09T03:57:52.440Z,79.89
2023-05-09T04:00:56.604Z,78.86
2023-05-09T04:04:01.659Z,78.86
2023-05-09T04:07:08.546Z,78.27
2023-05-09T04:10:12.306Z,78.57
2023-05-09T04:13:15.337Z,77.43
2023-05-09T04:16:18.726Z,76.88
2023-05-09T04:19:22.151Z,76.61
2023-05-09T04:22:25.084Z,74.29
2023-05-09T04:25:29.714Z,72.66
2023-05-09T04:28:32.670Z,72.74
2023-05-09T04:31:36.365Z,71.41
2023-05-09T04:34:40.948Z,69.82
2023-05-09T04:37:52.188Z,68.97
2023-05-09T04:40:55.452Z,68.87
2023-05-09T04:43:58.181Z,67.57
2023-05-09T04:47:02.079Z,65.19
2023-05-09T04:50:05.812Z,63.48
2023-05-09T04:53:09.410Z,64.26
2023-05-09T04:56:12.395Z,62.68
2023-05-09T04:59:15.411Z,62.01
2023-05-09T05:02:18.201Z,61.14
2023-05-09T05:05:25.334Z,60.62
2023-05-09T05:08:29.423Z,60.46
2023-05-09T05:11:32.594Z,57.82
2023-05-09T05:14:35.780Z,58.36
2023-05-09T05:17:40.405Z,58.73
2023-05-09T05:20:44.850Z,59.88
2023-05-09T05:23:48.072Z,59.97
2023-05-09T05:26:51.467Z,59.50
2023-05-09T05:29:54.934Z,61.74
2023-05-09T05:32:57.930Z,61.77
2023-05-09T05:36:02.270Z,60.76
2023-05-09T05:39:05.271Z,59.77
2023-05-09T05:42:08.279Z,62.60
2023-05-09T05:45:12.074Z,61.86
2023-05-09T05:48:19.434Z,60.50
2023-05-09T05:51:23.369Z,58.42
2023-05-09T05:54:27.141Z,59.12
2023-05-09T05:57:32.243Z,58.07
2023-05-09T06:00:36.585Z,56.98
2023-05-09T06:03:42.318Z,58.54
2023-05-09T06:06:49.320Z,58.61
2023-05-09T06:09:53.301Z,59.64
2023-05-09T06:12:56.290Z,57.60
2023-05-09T06:16:14.964Z,56.64
2023-05-09T06:19:18.646Z,56.75
2023-05-09T06:22:21.526Z,55.97
2023-05-09T06:25:24.422Z,57.28
2023-05-09T06:28:27.494Z,56.75
2023-05-09T06:31:30.406Z,57.88
2023-05-09T06:34:33.473Z,56.66
2023-05-09T06:37:37.605Z,55.14
2023-05-09T06:40:40.613Z,53.77
2023-05-09T06:43:43.697Z,55.09
2023-05-09T06:46:46.739Z,53.94
2023-05-09T06:49:49.690Z,51.69
2023-05-09T06:52:55.799Z,51.14
2023-05-09T06:55:58.726Z,49.02
2023-05-09T06:59:04.119Z,49.05
2023-05-09T07:02:07.648Z,48.97
2023-05-09T07:05:10.960Z,47.83
2023-05-09T07:08:14.045Z,43.85
2023-05-09T07:11:17.055Z,44.11
2023-05-09T07:14:20.815Z,41.00
2023-05-09T07:17:55.580Z,39.74
2023-05-09T07:20:58.554Z,38.12
2023-05-09T07:24:01.368Z,37.10
2023-05-09T07:27:04.311Z,38.87
2023-05-09T07:30:09.312Z,37.20
2023-05-09T07:33:16.729Z,35.34
2023-05-09T07:36:20.961Z,36.51
2023-05-09T07:39:23.866Z,36.84
2023-05-09T07:42:57.097Z,34.79
2023-05-09T07:46:03.449Z,33.88
2023-05-09T07:49:06.360Z,33.41
2023-05-09T07:53:02.448Z,33.67
2023-05-09T07:56:07.064Z,29.86
2023-05-09T07:59:18.749Z,31.93
2023-05-09T08:02:21.827Z,30.96
2023-05-09T08:06:48.740Z,29.02
2023-05-09T08:09:51.638Z,30.54
2023-05-09T08:14:04.582Z,31.55
2023-05-09T08:17:36.249Z,33.45
2023-05-09T08:20:56.004Z,30.80
2023-05-09T08:23:58.752Z,29.46
2023-05-09T08:27:20.536Z,30.63
2023-05-09T08:30:23.504Z,32.86
2023-05-09T08:33:26.473Z,31.16
2023-05-09T08:36:29.946Z,29.67
2023-05-09T08:39:35.150Z,27.95
2023-05-09T08:42:38.851Z,28.88
2023-05-09T08:45:48.016Z,27.84
2023-05-09T08:48:52.879Z,29.22
2023-05-09T08:51:59.355Z,28.06
2023-05-09T08:55:06.430Z,29.39
2023-05-09T08:58:13.692Z,26.56
2023-05-09T09:01:17.836Z,27.69
2023-05-09T09:04:20.874Z,28.11
2023-05-09T09:07:30.533Z,27.43
2023-05-09T09:10:35.554Z,26.74
2023-05-09T09:13:44.749Z,27.89
2023-05-09T09:16:49.149Z,29.63
2023-05-09T09:19:59.234Z,28.46
2023-05-09T09:23:05.704Z,27.35
2023-05-09T09:26:09.195Z,26.83
2023-05-09T09:29:14.979Z,25.91
2023-05-09T09:32:19.757Z,24.74
2023-05-09T09:35:22.762Z,27.02
2023-05-09T09:38:26.957Z,26.89
2023-05-09T09:42:01.733Z,27.90
2023-05-09T09:45:16.821Z,26.06
2023-05-09T09:48:35.023Z,26.61
2023-05-09T09:51:37.943Z,26.84
2023-05-09T09:54:41.021Z,26.83
2023-05-09T09:57:48.208Z,26.21
2023-05-09T10:01:11.565Z,26.71
2023-05-09T10:04:16.970Z,28.57
2023-05-09T10:07:24.004Z,29.17
2023-05-09T10:10:32.141Z,27.24
2023-05-09T10:13:36.639Z,26.99
2023-05-09T10:16:44.266Z,25.83
2023-05-09T10:19:51.653Z,26.66
2023-05-09T10:22:58.270Z,28.04
2023-05-09T10:26:52.905Z,30.11
2023-05-09T10:35:05.998Z,30.99
2023-05-09T10:38:12.726Z,31.05
2023-05-09T10:41:17.354Z,32.69
2023-05-09T10:44:23.429Z,34.29
2023-05-09T10:47:28.210Z,32.97
2023-05-09T10:50:53.420Z,27.74
2023-05-09T10:53:57.244Z,27.81
2023-05-09T10:57:01.061Z,28.73
2023-05-09T11:00:05.536Z,27.71
2023-05-09T11:03:09.103Z,29.10
2023-05-09T11:06:51.668Z,28.09
2023-05-09T11:10:41.949Z,27.73
2023-05-09T11:13:46.637Z,23.40
2023-05-09T11:25:14.397Z,30.13
2023-05-09T11:29:19.297Z,29.60
2023-05-09T11:32:35.041Z,32.10
2023-05-09T11:35:38.465Z,30.41
2023-05-09T11:39:31.486Z,32.78
2023-05-09T11:42:34.927Z,33.58
2023-05-09T11:45:39.313Z,31.77
2023-05-09T11:48:42.601Z,33.02
2023-05-09T11:51:45.567Z,32.80
2023-05-09T11:54:49.755Z,31.58
2023-05-09T11:57:54.762Z,32.92
2023-05-09T12:00:58.150Z,30.42
2023-05-09T12:04:02.552Z,31.57
2023-05-09T12:07:05.661Z,31.85
2023-05-09T12:10:13.861Z,31.56
2023-05-09T12:13:16.811Z,31.79
2023-05-09T12:16:21.280Z,29.76
2023-05-09T12:19:25.535Z,27.01
2023-05-09T12:22:48.738Z,27.82
2023-05-09T12:25:56.537Z,26.14
2023-05-09T12:29:00.979Z,25.28
2023-05-09T12:32:06.436Z,25.41
2023-05-09T12:35:10.918Z,26.36
2023-05-09T12:38:29.172Z,24.67
2023-05-09T12:42:00.342Z,22.78
2023-05-09T12:45:08.085Z,23.38
2023-05-09T12:48:11.958Z,27.60
2023-05-09T12:51:33.628Z,28.00
2023-05-09T12:54:39.378Z,29.86
2023-05-09T12:57:43.346Z,29.36
2023-05-09T13:00:46.593Z,28.91
2023-05-09T13:03:53.991Z,28.53
2023-05-09T13:07:00.177Z,28.41
2023-05-09T13:10:03.691Z,27.03
2023-05-09T13:13:06.609Z,26.06
2023-05-09T13:16:11.241Z,24.49
2023-05-09T13:19:18.420Z,23.92
2023-05-09T13:22:23.929Z,25.43
2023-05-09T13:25:26.854Z,21.70
2023-05-09T13:28:29.708Z,20.32
2023-05-09T13:31:32.753Z,21.77
2023-05-09T13:34:35.575Z,26.53
2023-05-09T13:37:42.501Z,29.01
2023-05-09T13:40:45.421Z,31.14
2023-05-09T13:43:48.489Z,30.17
2023-05-09T13:46:51.389Z,31.07
2023-05-09T13:49:54.246Z,31.93
2023-05-09T13:52:57.238Z,31.11
2023-05-09T13:56:00.003Z,31.23
2023-05-09T13:59:02.771Z,30.14
2023-05-09T14:02:05.821Z,29.85
2023-05-09T14:05:09.154Z,30.14
2023-05-09T14:08:12.548Z,30.28
2023-05-09T14:11:26.884Z,30.64
2023-05-09T14:14:29.664Z,32.70
2023-05-09T14:17:38.094Z,34.37
2023-05-09T14:20:42.438Z,34.55
2023-05-09T14:23:45.437Z,33.75
2023-05-09T14:27:19.333Z,34.17
2023-05-09T14:30:25.906Z,34.43
2023-05-09T14:33:29.311Z,36.31
2023-05-09T14:36:33.112Z,35.48
2023-05-09T14:39:36.585Z,35.39
2023-05-09T14:42:39.411Z,36.56
2023-05-09T14:45:42.186Z,36.26
2023-05-09T14:48:45.038Z,35.31
2023-05-09T14:51:47.892Z,34.74
2023-05-09T14:54:50.804Z,35.09
2023-05-09T14:57:53.816Z,33.62
2023-05-09T15:00:56.879Z,33.80
2023-05-09T15:03:59.709Z,33.69
2023-05-09T15:07:02.541Z,34.38
2023-05-09T15:10:05.983Z,33.68
2023-05-09T15:13:08.915Z,32.74
2023-05-09T15:16:12.377Z,34.54
2023-05-09T15:19:15.285Z,35.03
2023-05-09T15:22:18.111Z,35.63
2023-05-09T15:25:22.001Z,34.38
2023-05-09T15:28:24.909Z,34.27
2023-05-09T15:31:32.781Z,33.92
2023-05-09T15:34:35.816Z,35.01
2023-05-09T15:37:38.585Z,35.68
2023-05-09T15:40:41.524Z,34.84
2023-05-09T15:43:44.343Z,35.21
2023-05-09T15:46:47.259Z,36.57
2023-05-09T15:49:50.138Z,37.04
2023-05-09T15:52:53.008Z,36.97
2023-05-09T15:55:56.734Z,37.96
2023-05-09T15:58:59.682Z,38.76
2023-05-09T16:02:02.554Z,38.56
2023-05-09T16:05:05.617Z,38.20
2023-05-09T16:08:08.597Z,40.22
2023-05-09T16:11:18.903Z,41.20
2023-05-09T16:14:21.818Z,41.01
2023-05-09T16:17:24.699Z,41.25
2023-05-09T16:20:27.475Z,42.49
2023-05-09T16:23:30.288Z,43.39
2023-05-09T16:26:33.117Z,43.21
2023-05-09T16:29:35.978Z,43.76
2023-05-09T16:32:38.804Z,44.05
2023-05-09T16:35:41.642Z,45.17
2023-05-09T16:38:44.458Z,46.18
2023-05-09T16:41:47.341Z,46.09
2023-05-09T16:44:50.140Z,46.93
2023-05-09T16:51:59.523Z,49.69
2023-05-09T16:58:28.208Z,50.81
2023-05-09T17:01:31.296Z,51.76
2023-05-09T17:04:36.705Z,51.93
2023-05-09T17:07:44.503Z,52.11
2023-05-09T17:10:47.302Z,52.82
2023-05-09T17:13:50.293Z,52.91
2023-05-09T17:16:55.846Z,53.52
2023-05-09T17:19:58.817Z,54.63
2023-05-09T17:23:01.651Z,55.26
2023-05-09T17:26:04.920Z,56.41
2023-05-09T17:29:07.787Z,57.44
2023-05-09T17:32:10.598Z,57.87
2023-05-09T17:35:14.003Z,58.34
2023-05-09T17:38:17.581Z,59.04
2023-05-09T17:41:20.382Z,59.14
2023-05-09T17:44:23.190Z,60.07
2023-05-09T17:47:26.109Z,60.29
2023-05-09T17:50:29.326Z,60.92
2023-05-09T17:53:32.500Z,61.36
2023-05-09T17:56:35.422Z,61.57
2023-05-09T17:59:40.640Z,62.68
2023-05-09T18:02:43.875Z,63.01
2023-05-09T18:05:46.757Z,63.32
2023-05-09T18:08:49.513Z,63.32
2023-05-09T18:11:52.361Z,63.93
2023-05-09T18:14:55.688Z,64.59
2023-05-09T18:17:59.265Z,65.22
2023-05-09T18:21:29.981Z,65.41
2023-05-09T18:25:00.789Z,64.99
2023-05-09T18:28:05.792Z,65.54
2023-05-09T18:31:16.957Z,66.64
2023-05-09T18:34:22.640Z,67.20
2023-05-09T18:37:27.369Z,67.55
2023-05-09T18:40:30.176Z,68.92
2023-05-09T18:43:33.069Z,68.82
2023-05-09T18:46:36.055Z,69.24
2023-05-09T18:49:39.415Z,69.84
2023-05-09T18:52:44.425Z,70.69
2023-05-09T18:55:48.141Z,70.72
2023-05-09T18:58:51.287Z,71.81
2023-05-09T19:01:54.179Z,71.61
2023-05-09T19:04:57.064Z,71.95
2023-05-09T19:07:59.866Z,72.54
2023-05-09T19:11:02.789Z,73.29
2023-05-09T19:14:05.736Z,73.51
2023-05-09T19:17:08.860Z,73.48
2023-05-09T19:20:12.655Z,73.96
2023-05-09T19:23:15.773Z,74.92
2023-05-09T19:26:19.604Z,75.23
2023-05-09T19:29:22.414Z,75.64
2023-05-09T19:32:25.502Z,75.97
2023-05-09T19:35:28.264Z,77.20
2023-05-09T19:38:31.362Z,77.50
2023-05-09T19:41:34.853Z,79.29
2023-05-09T19:44:38.927Z,80.70
2023-05-09T19:47:42.779Z,82.75
2023-05-09T19:50:46.312Z,84.18
2023-05-09T19:53:49.387Z,85.06
2023-05-09T19:56:52.541Z,86.37
2023-05-09T19:59:58.010Z,84.29
2023-05-09T20:03:03.637Z,82.01
2023-05-09T20:06:07.835Z,82.06
2023-05-09T20:09:10.643Z,83.43
2023-05-09T20:12:14.445Z,83.80
2023-05-09T20:15:17.404Z,83.26
2023-05-09T20:18:20.224Z,81.65
2023-05-09T20:21:23.122Z,79.51
2023-05-09T20:24:26.246Z,77.22
2023-05-09T20:27:30.858Z,77.00
2023-05-09T20:30:34.009Z,76.61
2023-05-09T20:33:36.804Z,76.42
2023-05-09T20:36:39.931Z,76.20
2023-05-09T20:39:42.724Z,76.35
2023-05-09T20:42:45.508Z,76.43
2023-05-09T20:45:48.485Z,76.30
2023-05-09T20:48:51.839Z,76.58
2023-05-09T20:51:55.450Z,76.85
2023-05-09T20:54:59.435Z,77.24
2023-05-09T20:58:02.336Z,77.39
2023-05-09T21:01:05.196Z,77.26
2023-05-09T21:04:08.651Z,77.06
2023-05-09T21:07:12.100Z,77.48
2023-05-09T21:10:15.437Z,78.02
2023-05-09T21:13:18.420Z,78.03
2023-05-09T21:16:21.414Z,78.68
2023-05-09T21:19:24.901Z,78.44
2023-05-09T21:22:27.686Z,78.98
2023-05-09T21:25:30.591Z,79.20
2023-05-09T21:28:33.660Z,79.21
2023-05-09T21:31:36.567Z,79.69
2023-05-09T21:34:39.435Z,79.94
2023-05-09T21:37:42.260Z,80.19
2023-05-09T21:40:45.005Z,79.97
2023-05-09T21:43:47.719Z,80.34
2023-05-09T21:46:50.535Z,79.63
2023-05-09T21:49:53.691Z,79.77
2023-05-09T21:52:57.465Z,80.32
2023-05-09T21:56:00.244Z,80.15
2023-05-09T21:59:03.168Z,80.38
2023-05-09T22:02:06.038Z,81.03
2023-05-09T22:05:10.803Z,80.64
2023-05-09T22:08:14.204Z,81.01
2023-05-09T22:11:17.994Z,81.60
2023-05-09T22:14:20.728Z,81.62
2023-05-09T22:17:24.427Z,81.54
2023-05-09T22:20:27.369Z,81.73
2023-05-09T22:23:30.245Z,82.25
2023-05-09T22:26:33.381Z,82.56
2023-05-09T22:29:36.459Z,83.10
2023-05-09T22:32:39.914Z,83.17
2023-05-09T22:35:42.684Z,83.13
2023-05-09T22:38:45.349Z,83.03
2023-05-09T22:41:48.368Z,83.85
2023-05-09T22:44:52.864Z,84.29
2023-05-09T22:47:55.706Z,84.52
2023-05-09T22:50:58.558Z,84.85
2023-05-09T22:54:01.699Z,85.32
2023-05-09T22:57:04.516Z,85.71
2023-05-09T23:00:07.881Z,85.94
2023-05-09T23:03:10.796Z,86.31
2023-05-09T23:06:13.644Z,86.26
2023-05-09T23:09:16.504Z,86.92
2023-05-09T23:12:19.680Z,86.45
2023-05-09T23:15:22.461Z,86.86
2023-05-09T23:18:25.841Z,87.39
2023-05-09T23:21:29.233Z,87.56
2023-05-09T23:24:31.981Z,87.65
2023-05-09T23:27:34.709Z,88.35
2023-05-09T23:30:37.658Z,88.42
2023-05-09T23:33:40.409Z,88.80
2023-05-09T23:36:43.399Z,88.85
2023-05-09T23:39:46.212Z,89.17
2023-05-09T23:42:48.908Z,89.42
2023-05-09T23:45:51.945Z,89.97
2023-05-09T23:48:54.992Z,90.11
2023-05-09T23:51:57.848Z,90.13
2023-05-09T23:55:00.701Z,90.33
2023-05-09T23:58:03.602Z,90.78
